sensor_id;sensor_type;location;lat;lon;timestamp;P1;durP1;ratioP1;P2;durP2;ratioP2
8407;SDS011;4241;48.452;9.216;2023-03-26T00:01:06;389.10;;;119.97;;
8407;SDS011;4241;48.452;9.216;2023-03-26T00:03:36;386.10;;;118.47;;
8407;SDS011;4241;48.452;9.216;2023-03-26T00:06:03;384.70;;;117.97;;
8407;SDS011;4241;48.452;9.216;2023-03-26T00:08:32;387.33;;;120.33;;
8407;SDS011;4241;48.452;9.216;2023-03-26T00:10:59;388.07;;;119.47;;
8407;SDS011;4241;48.452;9.216;2023-03-26T00:13:26;387.53;;;119.50;;
8407;SDS011;4241;48.452;9.216;2023-03-26T00:15:53;385.93;;;118.97;;
8407;SDS011;4241;48.452;9.216;2023-03-26T00:18:20;389.73;;;119.23;;
8407;SDS011;4241;48.452;9.216;2023-03-26T00:20:50;389.90;;;119.70;;
8407;SDS011;4241;48.452;9.216;2023-03-26T00:23:17;389.97;;;119.87;;
8407;SDS011;4241;48.452;9.216;2023-03-26T00:25:43;391.00;;;120.03;;
8407;SDS011;4241;48.452;9.216;2023-03-26T00:28:15;393.57;;;121.17;;
8407;SDS011;4241;48.452;9.216;2023-03-26T00:30:45;392.63;;;120.73;;
8407;SDS011;4241;48.452;9.216;2023-03-26T00:33:12;393.50;;;121.23;;
8407;SDS011;4241;48.452;9.216;2023-03-26T00:35:41;393.73;;;120.83;;
8407;SDS011;4241;48.452;9.216;2023-03-26T00:38:12;392.43;;;121.10;;
8407;SDS011;4241;48.452;9.216;2023-03-26T00:40:39;391.57;;;119.10;;
8407;SDS011;4241;48.452;9.216;2023-03-26T00:43:08;391.97;;;120.67;;
8407;SDS011;4241;48.452;9.216;2023-03-26T00:45:43;392.07;;;120.80;;
8407;SDS011;4241;48.452;9.216;2023-03-26T00:48:10;393.07;;;122.77;;
8407;SDS011;4241;48.452;9.216;2023-03-26T00:50:37;388.87;;;119.57;;
8407;SDS011;4241;48.452;9.216;2023-03-26T00:53:05;392.00;;;121.33;;
8407;SDS011;4241;48.452;9.216;2023-03-26T00:55:34;395.80;;;125.83;;
8407;SDS011;4241;48.452;9.216;2023-03-26T00:58:01;390.07;;;121.87;;
8407;SDS011;4241;48.452;9.216;2023-03-26T01:00:28;391.07;;;121.13;;
8407;SDS011;4241;48.452;9.216;2023-03-26T01:02:58;385.97;;;118.07;;
8407;SDS011;4241;48.452;9.216;2023-03-26T01:05:40;394.13;;;125.40;;
8407;SDS011;4241;48.452;9.216;2023-03-26T01:08:14;386.43;;;119.43;;
8407;SDS011;4241;48.452;9.216;2023-03-26T01:10:51;385.87;;;119.03;;
8407;SDS011;4241;48.452;9.216;2023-03-26T01:13:27;380.63;;;115.63;;
8407;SDS011;4241;48.452;9.216;2023-03-26T01:15:55;383.87;;;118.23;;
8407;SDS011;4241;48.452;9.216;2023-03-26T01:18:26;384.97;;;118.77;;
8407;SDS011;4241;48.452;9.216;2023-03-26T01:20:58;382.43;;;118.40;;
8407;SDS011;4241;48.452;9.216;2023-03-26T01:23:30;381.87;;;116.73;;
8407;SDS011;4241;48.452;9.216;2023-03-26T01:26:06;378.87;;;115.70;;
8407;SDS011;4241;48.452;9.216;2023-03-26T01:28:41;380.57;;;117.03;;
8407;SDS011;4241;48.452;9.216;2023-03-26T01:31:09;381.83;;;117.13;;
8407;SDS011;4241;48.452;9.216;2023-03-26T01:33:44;380.00;;;116.40;;
8407;SDS011;4241;48.452;9.216;2023-03-26T01:36:15;382.27;;;117.33;;
8407;SDS011;4241;48.452;9.216;2023-03-26T01:38:48;384.50;;;117.67;;
8407;SDS011;4241;48.452;9.216;2023-03-26T01:41:28;381.77;;;116.47;;
8407;SDS011;4241;48.452;9.216;2023-03-26T01:43:59;386.37;;;118.23;;
8407;SDS011;4241;48.452;9.216;2023-03-26T01:46:31;383.63;;;117.30;;
8407;SDS011;4241;48.452;9.216;2023-03-26T01:49:00;386.23;;;118.77;;
8407;SDS011;4241;48.452;9.216;2023-03-26T01:51:29;384.87;;;118.27;;
8407;SDS011;4241;48.452;9.216;2023-03-26T01:53:57;385.33;;;118.37;;
8407;SDS011;4241;48.452;9.216;2023-03-26T01:56:27;386.67;;;120.13;;
8407;SDS011;4241;48.452;9.216;2023-03-26T01:59:06;384.93;;;117.67;;
8407;SDS011;4241;48.452;9.216;2023-03-26T02:01:43;379.70;;;115.53;;
8407;SDS011;4241;48.452;9.216;2023-03-26T02:04:21;413.70;;;145.47;;
8407;SDS011;4241;48.452;9.216;2023-03-26T02:06:56;386.43;;;117.97;;
8407;SDS011;4241;48.452;9.216;2023-03-26T02:09:26;385.17;;;117.33;;
8407;SDS011;4241;48.452;9.216;2023-03-26T02:11:58;386.57;;;118.00;;
8407;SDS011;4241;48.452;9.216;2023-03-26T02:14:27;388.73;;;119.83;;
8407;SDS011;4241;48.452;9.216;2023-03-26T02:16:55;391.17;;;121.13;;
8407;SDS011;4241;48.452;9.216;2023-03-26T02:19:22;388.30;;;118.67;;
8407;SDS011;4241;48.452;9.216;2023-03-26T02:21:49;388.27;;;118.40;;
8407;SDS011;4241;48.452;9.216;2023-03-26T02:24:16;388.83;;;119.40;;
8407;SDS011;4241;48.452;9.216;2023-03-26T02:26:43;388.43;;;119.23;;
8407;SDS011;4241;48.452;9.216;2023-03-26T02:29:12;389.07;;;119.37;;
8407;SDS011;4241;48.452;9.216;2023-03-26T02:31:43;385.07;;;117.57;;
8407;SDS011;4241;48.452;9.216;2023-03-26T02:34:11;386.57;;;118.40;;
8407;SDS011;4241;48.452;9.216;2023-03-26T02:36:38;385.87;;;118.40;;
8407;SDS011;4241;48.452;9.216;2023-03-26T02:39:07;384.47;;;117.43;;
8407;SDS011;4241;48.452;9.216;2023-03-26T02:41:34;385.30;;;117.53;;
8407;SDS011;4241;48.452;9.216;2023-03-26T02:44:01;387.00;;;118.43;;
8407;SDS011;4241;48.452;9.216;2023-03-26T02:46:30;387.00;;;118.17;;
8407;SDS011;4241;48.452;9.216;2023-03-26T02:48:57;383.67;;;117.53;;
8407;SDS011;4241;48.452;9.216;2023-03-26T02:51:24;384.73;;;118.03;;
8407;SDS011;4241;48.452;9.216;2023-03-26T02:53:51;383.50;;;116.70;;
8407;SDS011;4241;48.452;9.216;2023-03-26T02:56:18;383.97;;;117.60;;
8407;SDS011;4241;48.452;9.216;2023-03-26T02:58:45;383.60;;;117.27;;
8407;SDS011;4241;48.452;9.216;2023-03-26T03:01:12;384.93;;;118.30;;
8407;SDS011;4241;48.452;9.216;2023-03-26T03:03:43;383.70;;;117.23;;
8407;SDS011;4241;48.452;9.216;2023-03-26T03:06:12;384.37;;;117.03;;
8407;SDS011;4241;48.452;9.216;2023-03-26T03:08:41;383.17;;;116.77;;
8407;SDS011;4241;48.452;9.216;2023-03-26T03:11:11;384.67;;;117.60;;
8407;SDS011;4241;48.452;9.216;2023-03-26T03:13:39;382.63;;;118.00;;
8407;SDS011;4241;48.452;9.216;2023-03-26T03:16:06;384.27;;;118.13;;
8407;SDS011;4241;48.452;9.216;2023-03-26T03:18:33;382.27;;;116.80;;
8407;SDS011;4241;48.452;9.216;2023-03-26T03:21:03;382.40;;;117.30;;
8407;SDS011;4241;48.452;9.216;2023-03-26T03:23:30;383.20;;;117.23;;
8407;SDS011;4241;48.452;9.216;2023-03-26T03:25:57;381.70;;;116.53;;
8407;SDS011;4241;48.452;9.216;2023-03-26T03:28:26;381.70;;;116.33;;
8407;SDS011;4241;48.452;9.216;2023-03-26T03:30:54;382.90;;;117.47;;
8407;SDS011;4241;48.452;9.216;2023-03-26T03:33:21;382.93;;;117.37;;
8407;SDS011;4241;48.452;9.216;2023-03-26T03:35:49;381.03;;;117.00;;
8407;SDS011;4241;48.452;9.216;2023-03-26T03:38:17;380.07;;;116.07;;
8407;SDS011;4241;48.452;9.216;2023-03-26T03:40:44;380.53;;;115.23;;
8407;SDS011;4241;48.452;9.216;2023-03-26T03:43:11;381.87;;;116.43;;
8407;SDS011;4241;48.452;9.216;2023-03-26T03:45:37;388.00;;;120.67;;
8407;SDS011;4241;48.452;9.216;2023-03-26T03:48:04;378.67;;;115.63;;
8407;SDS011;4241;48.452;9.216;2023-03-26T03:50:31;375.93;;;114.03;;
8407;SDS011;4241;48.452;9.216;2023-03-26T03:52:58;379.43;;;115.97;;
8407;SDS011;4241;48.452;9.216;2023-03-26T03:55:26;383.83;;;120.43;;
8407;SDS011;4241;48.452;9.216;2023-03-26T03:57:54;377.40;;;115.37;;
8407;SDS011;4241;48.452;9.216;2023-03-26T04:00:22;377.57;;;115.87;;
8407;SDS011;4241;48.452;9.216;2023-03-26T04:02:49;380.30;;;115.93;;
8407;SDS011;4241;48.452;9.216;2023-03-26T04:05:18;377.47;;;115.27;;
8407;SDS011;4241;48.452;9.216;2023-03-26T04:07:45;379.40;;;115.90;;
8407;SDS011;4241;48.452;9.216;2023-03-26T04:10:13;379.63;;;115.80;;
8407;SDS011;4241;48.452;9.216;2023-03-26T04:12:42;379.87;;;117.07;;
8407;SDS011;4241;48.452;9.216;2023-03-26T04:15:08;376.83;;;115.57;;
8407;SDS011;4241;48.452;9.216;2023-03-26T04:17:35;373.40;;;115.53;;
8407;SDS011;4241;48.452;9.216;2023-03-26T04:20:06;374.67;;;114.43;;
8407;SDS011;4241;48.452;9.216;2023-03-26T04:22:38;372.80;;;114.17;;
8407;SDS011;4241;48.452;9.216;2023-03-26T04:25:06;378.30;;;117.13;;
8407;SDS011;4241;48.452;9.216;2023-03-26T04:27:34;375.63;;;115.37;;
8407;SDS011;4241;48.452;9.216;2023-03-26T04:30:02;371.57;;;113.47;;
8407;SDS011;4241;48.452;9.216;2023-03-26T04:32:31;371.73;;;114.00;;
8407;SDS011;4241;48.452;9.216;2023-03-26T04:34:59;370.20;;;114.33;;
8407;SDS011;4241;48.452;9.216;2023-03-26T04:37:28;367.27;;;113.27;;
8407;SDS011;4241;48.452;9.216;2023-03-26T04:39:58;367.83;;;112.83;;
8407;SDS011;4241;48.452;9.216;2023-03-26T04:42:32;365.33;;;112.27;;
8407;SDS011;4241;48.452;9.216;2023-03-26T04:44:59;369.20;;;113.63;;
8407;SDS011;4241;48.452;9.216;2023-03-26T04:47:28;364.50;;;113.27;;
8407;SDS011;4241;48.452;9.216;2023-03-26T04:49:55;366.20;;;113.20;;
8407;SDS011;4241;48.452;9.216;2023-03-26T04:52:22;369.00;;;114.20;;
8407;SDS011;4241;48.452;9.216;2023-03-26T04:54:48;368.30;;;112.87;;
8407;SDS011;4241;48.452;9.216;2023-03-26T04:57:16;374.20;;;116.13;;
8407;SDS011;4241;48.452;9.216;2023-03-26T04:59:46;371.23;;;114.07;;
8407;SDS011;4241;48.452;9.216;2023-03-26T05:02:14;371.43;;;114.70;;
8407;SDS011;4241;48.452;9.216;2023-03-26T05:04:43;377.17;;;117.30;;
8407;SDS011;4241;48.452;9.216;2023-03-26T05:07:10;373.07;;;114.40;;
8407;SDS011;4241;48.452;9.216;2023-03-26T05:09:41;375.90;;;115.83;;
8407;SDS011;4241;48.452;9.216;2023-03-26T05:12:08;381.00;;;117.77;;
8407;SDS011;4241;48.452;9.216;2023-03-26T05:14:35;381.97;;;117.57;;
8407;SDS011;4241;48.452;9.216;2023-03-26T05:17:02;381.73;;;116.27;;
8407;SDS011;4241;48.452;9.216;2023-03-26T05:19:30;385.30;;;119.10;;
8407;SDS011;4241;48.452;9.216;2023-03-26T05:21:58;385.03;;;118.80;;
8407;SDS011;4241;48.452;9.216;2023-03-26T05:24:25;384.23;;;117.37;;
8407;SDS011;4241;48.452;9.216;2023-03-26T05:26:52;384.83;;;119.10;;
8407;SDS011;4241;48.452;9.216;2023-03-26T05:29:19;388.53;;;121.37;;
8407;SDS011;4241;48.452;9.216;2023-03-26T05:31:48;387.53;;;119.77;;
8407;SDS011;4241;48.452;9.216;2023-03-26T05:34:15;387.93;;;120.30;;
8407;SDS011;4241;48.452;9.216;2023-03-26T05:36:41;389.37;;;121.10;;
8407;SDS011;4241;48.452;9.216;2023-03-26T05:39:10;384.93;;;118.10;;
8407;SDS011;4241;48.452;9.216;2023-03-26T05:41:38;385.57;;;119.67;;
8407;SDS011;4241;48.452;9.216;2023-03-26T05:44:05;387.03;;;119.77;;
8407;SDS011;4241;48.452;9.216;2023-03-26T05:46:32;389.47;;;120.53;;
8407;SDS011;4241;48.452;9.216;2023-03-26T05:48:58;388.67;;;119.50;;
8407;SDS011;4241;48.452;9.216;2023-03-26T05:51:25;387.63;;;119.83;;
8407;SDS011;4241;48.452;9.216;2023-03-26T05:53:52;388.13;;;120.23;;
8407;SDS011;4241;48.452;9.216;2023-03-26T05:56:20;388.50;;;119.63;;
8407;SDS011;4241;48.452;9.216;2023-03-26T05:58:47;388.83;;;119.57;;
8407;SDS011;4241;48.452;9.216;2023-03-26T06:01:14;387.43;;;118.47;;
8407;SDS011;4241;48.452;9.216;2023-03-26T06:03:43;388.07;;;119.57;;
8407;SDS011;4241;48.452;9.216;2023-03-26T06:06:12;385.13;;;118.63;;
8407;SDS011;4241;48.452;9.216;2023-03-26T06:08:41;388.63;;;120.50;;
8407;SDS011;4241;48.452;9.216;2023-03-26T06:11:09;388.60;;;121.20;;
8407;SDS011;4241;48.452;9.216;2023-03-26T06:13:38;384.33;;;118.83;;
8407;SDS011;4241;48.452;9.216;2023-03-26T06:16:05;390.80;;;121.13;;
8407;SDS011;4241;48.452;9.216;2023-03-26T06:18:33;391.20;;;121.07;;
8407;SDS011;4241;48.452;9.216;2023-03-26T06:21:00;388.23;;;120.03;;
8407;SDS011;4241;48.452;9.216;2023-03-26T06:23:27;386.73;;;119.53;;
8407;SDS011;4241;48.452;9.216;2023-03-26T06:25:54;386.63;;;118.47;;
8407;SDS011;4241;48.452;9.216;2023-03-26T06:28:21;387.50;;;119.87;;
8407;SDS011;4241;48.452;9.216;2023-03-26T06:30:50;387.33;;;119.53;;
8407;SDS011;4241;48.452;9.216;2023-03-26T06:33:16;387.90;;;119.37;;
8407;SDS011;4241;48.452;9.216;2023-03-26T06:35:43;390.27;;;120.30;;
8407;SDS011;4241;48.452;9.216;2023-03-26T06:38:10;383.93;;;119.30;;
8407;SDS011;4241;48.452;9.216;2023-03-26T06:40:38;383.87;;;119.43;;
8407;SDS011;4241;48.452;9.216;2023-03-26T06:43:04;385.20;;;119.60;;
8407;SDS011;4241;48.452;9.216;2023-03-26T06:45:32;393.43;;;125.87;;
8407;SDS011;4241;48.452;9.216;2023-03-26T06:48:00;386.00;;;118.77;;
8407;SDS011;4241;48.452;9.216;2023-03-26T06:50:27;385.70;;;119.30;;
8407;SDS011;4241;48.452;9.216;2023-03-26T06:52:56;384.30;;;117.80;;
8407;SDS011;4241;48.452;9.216;2023-03-26T06:55:23;389.60;;;123.03;;
8407;SDS011;4241;48.452;9.216;2023-03-26T06:57:51;382.17;;;116.80;;
8407;SDS011;4241;48.452;9.216;2023-03-26T07:00:20;387.63;;;119.90;;
8407;SDS011;4241;48.452;9.216;2023-03-26T07:02:46;387.23;;;120.03;;
8407;SDS011;4241;48.452;9.216;2023-03-26T07:05:15;386.73;;;119.90;;
8407;SDS011;4241;48.452;9.216;2023-03-26T07:07:42;384.83;;;118.87;;
8407;SDS011;4241;48.452;9.216;2023-03-26T07:10:09;383.80;;;117.97;;
8407;SDS011;4241;48.452;9.216;2023-03-26T07:12:37;385.23;;;119.53;;
8407;SDS011;4241;48.452;9.216;2023-03-26T07:15:04;384.87;;;118.37;;
8407;SDS011;4241;48.452;9.216;2023-03-26T07:17:31;384.20;;;119.13;;
8407;SDS011;4241;48.452;9.216;2023-03-26T07:19:58;384.27;;;117.80;;
8407;SDS011;4241;48.452;9.216;2023-03-26T07:22:27;386.40;;;119.43;;
8407;SDS011;4241;48.452;9.216;2023-03-26T07:24:54;384.43;;;116.97;;
8407;SDS011;4241;48.452;9.216;2023-03-26T07:27:25;388.43;;;120.57;;
8407;SDS011;4241;48.452;9.216;2023-03-26T07:30:03;386.63;;;117.50;;
8407;SDS011;4241;48.452;9.216;2023-03-26T07:32:35;388.20;;;119.73;;
8407;SDS011;4241;48.452;9.216;2023-03-26T07:35:09;389.97;;;120.83;;
8407;SDS011;4241;48.452;9.216;2023-03-26T07:37:46;390.70;;;119.80;;
8407;SDS011;4241;48.452;9.216;2023-03-26T07:40:38;390.53;;;119.93;;
8407;SDS011;4241;48.452;9.216;2023-03-26T07:43:14;388.20;;;119.63;;
8407;SDS011;4241;48.452;9.216;2023-03-26T07:45:50;391.40;;;120.17;;
8407;SDS011;4241;48.452;9.216;2023-03-26T07:48:20;392.40;;;120.83;;
8407;SDS011;4241;48.452;9.216;2023-03-26T07:50:49;399.17;;;121.60;;
8407;SDS011;4241;48.452;9.216;2023-03-26T07:53:18;397.10;;;121.13;;
8407;SDS011;4241;48.452;9.216;2023-03-26T07:55:48;396.70;;;120.90;;
8407;SDS011;4241;48.452;9.216;2023-03-26T07:58:29;397.00;;;121.73;;
8407;SDS011;4241;48.452;9.216;2023-03-26T08:01:11;394.70;;;120.77;;
8407;SDS011;4241;48.452;9.216;2023-03-26T08:04:00;397.37;;;121.87;;
8407;SDS011;4241;48.452;9.216;2023-03-26T08:06:37;394.80;;;120.33;;
8407;SDS011;4241;48.452;9.216;2023-03-26T08:09:10;395.90;;;121.43;;
8407;SDS011;4241;48.452;9.216;2023-03-26T08:11:43;393.63;;;118.93;;
8407;SDS011;4241;48.452;9.216;2023-03-26T08:14:20;395.53;;;120.80;;
8407;SDS011;4241;48.452;9.216;2023-03-26T08:16:56;398.13;;;122.17;;
8407;SDS011;4241;48.452;9.216;2023-03-26T08:19:37;394.60;;;120.93;;
8407;SDS011;4241;48.452;9.216;2023-03-26T08:22:11;394.83;;;121.57;;
8407;SDS011;4241;48.452;9.216;2023-03-26T08:24:46;392.40;;;120.27;;
8407;SDS011;4241;48.452;9.216;2023-03-26T08:27:21;391.47;;;119.70;;
8407;SDS011;4241;48.452;9.216;2023-03-26T08:29:55;392.77;;;119.23;;
8407;SDS011;4241;48.452;9.216;2023-03-26T08:32:27;393.60;;;120.07;;
8407;SDS011;4241;48.452;9.216;2023-03-26T08:34:54;391.37;;;118.47;;
8407;SDS011;4241;48.452;9.216;2023-03-26T08:37:24;393.63;;;119.87;;
8407;SDS011;4241;48.452;9.216;2023-03-26T08:39:52;395.97;;;122.20;;
8407;SDS011;4241;48.452;9.216;2023-03-26T08:42:36;396.00;;;121.07;;
8407;SDS011;4241;48.452;9.216;2023-03-26T08:45:29;394.07;;;121.27;;
8407;SDS011;4241;48.452;9.216;2023-03-26T08:51:23;393.20;;;120.47;;
8407;SDS011;4241;48.452;9.216;2023-03-26T08:54:28;392.70;;;120.40;;
8407;SDS011;4241;48.452;9.216;2023-03-26T08:57:19;395.53;;;121.43;;
8407;SDS011;4241;48.452;9.216;2023-03-26T09:05:53;399.90;;;122.50;;
8407;SDS011;4241;48.452;9.216;2023-03-26T09:08:48;402.63;;;123.90;;
8407;SDS011;4241;48.452;9.216;2023-03-26T09:11:37;402.90;;;123.30;;
8407;SDS011;4241;48.452;9.216;2023-03-26T09:14:35;404.47;;;123.00;;
8407;SDS011;4241;48.452;9.216;2023-03-26T09:23:41;416.70;;;129.37;;
8407;SDS011;4241;48.452;9.216;2023-03-26T09:26:33;413.13;;;127.70;;
8407;SDS011;4241;48.452;9.216;2023-03-26T09:32:29;425.17;;;131.57;;
8407;SDS011;4241;48.452;9.216;2023-03-26T09:35:19;428.50;;;133.50;;
8407;SDS011;4241;48.452;9.216;2023-03-26T09:38:10;434.47;;;135.20;;
8407;SDS011;4241;48.452;9.216;2023-03-26T09:40:51;436.87;;;135.93;;
8407;SDS011;4241;48.452;9.216;2023-03-26T09:43:38;439.90;;;137.40;;
8407;SDS011;4241;48.452;9.216;2023-03-26T09:46:22;439.53;;;137.90;;
8407;SDS011;4241;48.452;9.216;2023-03-26T09:52:02;439.60;;;139.33;;
8407;SDS011;4241;48.452;9.216;2023-03-26T09:57:48;439.93;;;139.63;;
8407;SDS011;4241;48.452;9.216;2023-03-26T10:00:33;440.40;;;139.57;;
8407;SDS011;4241;48.452;9.216;2023-03-26T10:03:10;440.17;;;139.67;;
8407;SDS011;4241;48.452;9.216;2023-03-26T10:05:48;437.77;;;137.87;;
8407;SDS011;4241;48.452;9.216;2023-03-26T10:08:29;438.07;;;137.60;;
8407;SDS011;4241;48.452;9.216;2023-03-26T10:11:10;437.40;;;137.67;;
8407;SDS011;4241;48.452;9.216;2023-03-26T10:13:48;432.70;;;135.37;;
8407;SDS011;4241;48.452;9.216;2023-03-26T10:16:23;429.37;;;134.23;;
8407;SDS011;4241;48.452;9.216;2023-03-26T10:18:58;426.10;;;133.67;;
8407;SDS011;4241;48.452;9.216;2023-03-26T10:21:40;417.43;;;130.33;;
8407;SDS011;4241;48.452;9.216;2023-03-26T10:24:14;409.60;;;127.00;;
8407;SDS011;4241;48.452;9.216;2023-03-26T10:30:06;399.63;;;124.07;;
8407;SDS011;4241;48.452;9.216;2023-03-26T10:32:52;396.27;;;121.03;;
8407;SDS011;4241;48.452;9.216;2023-03-26T10:35:32;405.00;;;126.30;;
8407;SDS011;4241;48.452;9.216;2023-03-26T10:38:17;404.80;;;124.90;;
8407;SDS011;4241;48.452;9.216;2023-03-26T10:40:53;409.60;;;124.60;;
8407;SDS011;4241;48.452;9.216;2023-03-26T10:46:40;425.70;;;129.70;;
8407;SDS011;4241;48.452;9.216;2023-03-26T10:49:31;429.33;;;132.60;;
8407;SDS011;4241;48.452;9.216;2023-03-26T10:52:17;436.07;;;137.20;;
8407;SDS011;4241;48.452;9.216;2023-03-26T10:54:51;438.53;;;136.93;;
8407;SDS011;4241;48.452;9.216;2023-03-26T10:57:23;440.33;;;140.53;;
8407;SDS011;4241;48.452;9.216;2023-03-26T11:00:04;439.53;;;139.13;;
8407;SDS011;4241;48.452;9.216;2023-03-26T11:02:42;439.90;;;140.37;;
8407;SDS011;4241;48.452;9.216;2023-03-26T11:05:18;434.43;;;137.77;;
8407;SDS011;4241;48.452;9.216;2023-03-26T11:07:59;428.30;;;135.50;;
8407;SDS011;4241;48.452;9.216;2023-03-26T11:10:34;422.43;;;132.37;;
8407;SDS011;4241;48.452;9.216;2023-03-26T11:13:13;417.77;;;131.27;;
8407;SDS011;4241;48.452;9.216;2023-03-26T11:15:45;419.00;;;131.53;;
8407;SDS011;4241;48.452;9.216;2023-03-26T11:18:17;421.93;;;131.33;;
8407;SDS011;4241;48.452;9.216;2023-03-26T11:20:47;422.20;;;130.97;;
8407;SDS011;4241;48.452;9.216;2023-03-26T11:23:25;421.63;;;131.30;;
8407;SDS011;4241;48.452;9.216;2023-03-26T11:26:09;422.07;;;131.27;;
8407;SDS011;4241;48.452;9.216;2023-03-26T11:31:41;417.30;;;129.90;;
8407;SDS011;4241;48.452;9.216;2023-03-26T11:34:19;417.93;;;129.87;;
8407;SDS011;4241;48.452;9.216;2023-03-26T11:36:52;419.77;;;130.87;;
8407;SDS011;4241;48.452;9.216;2023-03-26T11:39:22;420.67;;;130.93;;
8407;SDS011;4241;48.452;9.216;2023-03-26T11:41:54;422.43;;;129.80;;
8407;SDS011;4241;48.452;9.216;2023-03-26T11:44:27;421.47;;;129.93;;
8407;SDS011;4241;48.452;9.216;2023-03-26T11:47:01;426.10;;;131.97;;
8407;SDS011;4241;48.452;9.216;2023-03-26T11:49:32;432.70;;;134.23;;
8407;SDS011;4241;48.452;9.216;2023-03-26T11:52:00;439.63;;;139.47;;
8407;SDS011;4241;48.452;9.216;2023-03-26T11:54:27;442.03;;;140.47;;
8407;SDS011;4241;48.452;9.216;2023-03-26T11:56:59;441.50;;;138.20;;
8407;SDS011;4241;48.452;9.216;2023-03-26T11:59:31;444.53;;;142.53;;
8407;SDS011;4241;48.452;9.216;2023-03-26T12:02:14;446.37;;;144.83;;
8407;SDS011;4241;48.452;9.216;2023-03-26T12:04:43;444.37;;;143.10;;
8407;SDS011;4241;48.452;9.216;2023-03-26T12:07:16;447.23;;;146.80;;
8407;SDS011;4241;48.452;9.216;2023-03-26T12:09:48;446.97;;;147.13;;
8407;SDS011;4241;48.452;9.216;2023-03-26T12:12:17;447.00;;;146.30;;
8407;SDS011;4241;48.452;9.216;2023-03-26T12:14:45;448.60;;;147.10;;
8407;SDS011;4241;48.452;9.216;2023-03-26T12:17:14;448.17;;;147.93;;
8407;SDS011;4241;48.452;9.216;2023-03-26T12:19:52;448.23;;;148.17;;
8407;SDS011;4241;48.452;9.216;2023-03-26T12:22:26;448.13;;;147.57;;
8407;SDS011;4241;48.452;9.216;2023-03-26T12:25:01;447.03;;;144.97;;
8407;SDS011;4241;48.452;9.216;2023-03-26T12:27:42;446.57;;;145.47;;
8407;SDS011;4241;48.452;9.216;2023-03-26T12:30:11;446.47;;;145.27;;
8407;SDS011;4241;48.452;9.216;2023-03-26T12:32:45;448.07;;;146.97;;
8407;SDS011;4241;48.452;9.216;2023-03-26T12:35:14;449.13;;;148.40;;
8407;SDS011;4241;48.452;9.216;2023-03-26T12:37:43;450.33;;;147.13;;
8407;SDS011;4241;48.452;9.216;2023-03-26T12:40:25;447.77;;;146.80;;
8407;SDS011;4241;48.452;9.216;2023-03-26T12:42:55;447.27;;;145.63;;
8407;SDS011;4241;48.452;9.216;2023-03-26T12:45:27;451.60;;;151.27;;
8407;SDS011;4241;48.452;9.216;2023-03-26T12:47:55;448.70;;;147.50;;
8407;SDS011;4241;48.452;9.216;2023-03-26T12:50:25;447.23;;;145.70;;
8407;SDS011;4241;48.452;9.216;2023-03-26T12:52:59;447.47;;;146.80;;
8407;SDS011;4241;48.452;9.216;2023-03-26T12:55:40;451.20;;;149.63;;
8407;SDS011;4241;48.452;9.216;2023-03-26T12:58:24;446.63;;;144.30;;
8407;SDS011;4241;48.452;9.216;2023-03-26T13:01:03;454.67;;;153.20;;
8407;SDS011;4241;48.452;9.216;2023-03-26T13:03:42;447.37;;;145.73;;
8407;SDS011;4241;48.452;9.216;2023-03-26T13:06:29;448.93;;;147.50;;
8407;SDS011;4241;48.452;9.216;2023-03-26T13:09:06;448.47;;;148.00;;
8407;SDS011;4241;48.452;9.216;2023-03-26T13:11:52;446.80;;;146.50;;
8407;SDS011;4241;48.452;9.216;2023-03-26T13:14:33;446.37;;;144.93;;
8407;SDS011;4241;48.452;9.216;2023-03-26T13:17:16;447.50;;;146.27;;
8407;SDS011;4241;48.452;9.216;2023-03-26T13:19:50;449.37;;;148.40;;
8407;SDS011;4241;48.452;9.216;2023-03-26T13:22:24;446.50;;;144.33;;
8407;SDS011;4241;48.452;9.216;2023-03-26T13:25:00;449.70;;;146.87;;
8407;SDS011;4241;48.452;9.216;2023-03-26T13:27:35;449.33;;;147.37;;
8407;SDS011;4241;48.452;9.216;2023-03-26T13:30:17;449.77;;;147.57;;
8407;SDS011;4241;48.452;9.216;2023-03-26T13:32:54;449.00;;;148.37;;
8407;SDS011;4241;48.452;9.216;2023-03-26T13:35:28;455.33;;;154.07;;
8407;SDS011;4241;48.452;9.216;2023-03-26T13:38:00;449.83;;;148.30;;
8407;SDS011;4241;48.452;9.216;2023-03-26T13:40:39;453.00;;;151.03;;
8407;SDS011;4241;48.452;9.216;2023-03-26T13:43:20;448.37;;;147.30;;
8407;SDS011;4241;48.452;9.216;2023-03-26T13:45:58;451.27;;;149.33;;
8407;SDS011;4241;48.452;9.216;2023-03-26T13:48:34;448.73;;;146.73;;
8407;SDS011;4241;48.452;9.216;2023-03-26T13:51:08;449.03;;;146.70;;
8407;SDS011;4241;48.452;9.216;2023-03-26T13:53:39;447.37;;;146.87;;
8407;SDS011;4241;48.452;9.216;2023-03-26T13:56:10;447.73;;;147.13;;
8407;SDS011;4241;48.452;9.216;2023-03-26T13:58:42;449.30;;;148.30;;
8407;SDS011;4241;48.452;9.216;2023-03-26T14:01:13;448.23;;;147.03;;
8407;SDS011;4241;48.452;9.216;2023-03-26T14:03:47;450.23;;;148.80;;
8407;SDS011;4241;48.452;9.216;2023-03-26T14:06:26;448.43;;;148.07;;
8407;SDS011;4241;48.452;9.216;2023-03-26T14:09:02;449.97;;;149.67;;
8407;SDS011;4241;48.452;9.216;2023-03-26T14:11:36;452.73;;;153.03;;
8407;SDS011;4241;48.452;9.216;2023-03-26T14:14:11;448.60;;;147.30;;
8407;SDS011;4241;48.452;9.216;2023-03-26T14:16:45;447.87;;;146.47;;
8407;SDS011;4241;48.452;9.216;2023-03-26T14:19:27;450.43;;;148.70;;
8407;SDS011;4241;48.452;9.216;2023-03-26T14:22:12;448.90;;;147.73;;
8407;SDS011;4241;48.452;9.216;2023-03-26T14:24:50;448.43;;;146.77;;
8407;SDS011;4241;48.452;9.216;2023-03-26T14:27:26;446.80;;;144.80;;
8407;SDS011;4241;48.452;9.216;2023-03-26T14:30:16;446.57;;;144.40;;
8407;SDS011;4241;48.452;9.216;2023-03-26T14:33:04;444.30;;;141.73;;
8407;SDS011;4241;48.452;9.216;2023-03-26T14:35:48;446.40;;;144.90;;
8407;SDS011;4241;48.452;9.216;2023-03-26T14:38:25;445.53;;;142.97;;
8407;SDS011;4241;48.452;9.216;2023-03-26T14:41:09;446.90;;;142.83;;
8407;SDS011;4241;48.452;9.216;2023-03-26T14:44:01;443.90;;;140.07;;
8407;SDS011;4241;48.452;9.216;2023-03-26T14:47:00;442.43;;;140.13;;
8407;SDS011;4241;48.452;9.216;2023-03-26T14:52:46;440.93;;;137.43;;
8407;SDS011;4241;48.452;9.216;2023-03-26T14:55:16;440.83;;;136.30;;
8407;SDS011;4241;48.452;9.216;2023-03-26T14:58:02;440.87;;;136.77;;
8407;SDS011;4241;48.452;9.216;2023-03-26T15:01:12;438.33;;;135.27;;
8407;SDS011;4241;48.452;9.216;2023-03-26T15:10:22;438.20;;;134.17;;
8407;SDS011;4241;48.452;9.216;2023-03-26T15:16:37;438.20;;;134.33;;
8407;SDS011;4241;48.452;9.216;2023-03-26T15:19:34;436.43;;;133.20;;
8407;SDS011;4241;48.452;9.216;2023-03-26T15:28:58;435.63;;;132.37;;
8407;SDS011;4241;48.452;9.216;2023-03-26T15:31:39;434.50;;;131.30;;
8407;SDS011;4241;48.452;9.216;2023-03-26T15:37:33;434.10;;;129.97;;
8407;SDS011;4241;48.452;9.216;2023-03-26T15:40:39;429.37;;;126.63;;
8407;SDS011;4241;48.452;9.216;2023-03-26T15:43:11;428.93;;;126.43;;
8407;SDS011;4241;48.452;9.216;2023-03-26T15:45:42;428.10;;;125.37;;
8407;SDS011;4241;48.452;9.216;2023-03-26T15:48:20;423.70;;;121.57;;
8407;SDS011;4241;48.452;9.216;2023-03-26T15:53:53;421.03;;;120.67;;
8407;SDS011;4241;48.452;9.216;2023-03-26T15:56:29;420.73;;;120.93;;